logo
Rechercher aéroport 
image banner adimage banner adimage banner ad
image banner ad

FLLP - Lubonga

Situé à Marula, Zambia

ICAO - , IATA -

Données fournies par Airmate  

Information générale

Coordonnées: S11°45'0" E32°9'60"
Élévation : 2352 feet MSL.
Variation magnétique : -3° East
Voir autres Aéroports à Northern Province

Données opérationnelles

Special qualification required
Heure actuelle UTC:
Heure actuelle locale:
Météo à : - ( 0 km )
METAR: YPDN 251626Z AUTO 09001KT 9999 -SHRA OVC040 24/22 Q1013 RESHRA
Voir NOTAMs / SUP AIP / TFR affectant cet aéroport [VIEW]
Fréquences de communication: [VIEW]

Pistes:

Identifiant RWYQFULongueur (ft)Largeur (ft)SurfaceLDA (ft)
31308°3949104DIRT
13128°3949104DIRT

Coordonnées de l'aéroport

Adresse: Marula Zambia

Vue satellite de FLLP